Карточка аэропорта UNNT

Внимание!
Информация на этой странице в стадии наполнения.
Если вы не увидели какой-то информации, или заметили неточность - пожалуйста сообщите нам!
Спасибо!
Команда RU-STAFF
Название аэропортаТолмачево
Название аэропорта (англ.)Tolmachevo
Превышение367 ft. (111.9 m.)
Координаты55°0.77999999999989', 82°38.178'
Высота перехода6000ft
Эшелон переходаQNH>=1013hPa:FL70; QNH<1013hPa:FL80; QNH<977hPa:FL90
Коды ответчика5201-5227
Зона ОрВДНовосибирск РПИ (UNNT)
Данные METARUNNT 190130Z 13003MPS CAVOK 17/07 Q1004 R25/090070 R16/////// NOSIG RMK QFE743/0991
Проноз погоды (TAF)UNNT 182000Z 1821/1921 16003G08MPS 8000 SCT040CB TX17/1909Z TN11/1823Z TEMPO 1903/1913 20006G13MPS -SHRA BKN016CB BECMG 1913/1915 02005G10MPS
NOTAMshow/hide NOTAM
AWOS   TABLE

Информация о ВПП

ВПП Длина ВПП (м.) Покрытие Курс ВПП Частота ILS
343602Цементобетон341111.1
253597Асфальтобетон252108.5
163602Цементобетон161109.7
073597Асфальтобетон72110.1

Диспетчерские позиции

Позывной Наименование органа УВД Частота
UNNT_APPНовосибирск-Подход127.5
UNNT_DEL Новосибирск-Деливери135.4
UNNT_GNDНовосибирск-Руление121.7
UNNT_R_APPНовосибирск-Круг122.0
UNNT_TWRНовосибирск-Вышка118.5



Спутниковое изображение